Time;durP1;ratioP1;P1;durP2;ratioP2;P2;SDS_P1;SDS_P2;PMS_P1;PMS_P2;Temp;Humidity;BMP_temperature;BMP_pressure;BME280_temperature;BME280_humidity;BME280_pressure;Samples;Min_cycle;Max_cycle;Signal;HPM_P1;HPM_P2
2022/05/18 00:02:26;;;;;;;4.70;1.95;;;;;;;;;;5006596;28;20049;-69
2022/05/18 00:04:51;;;;;;;2.60;1.70;;;;;;;;;;5007140;28;20721;-69
2022/05/18 00:07:16;;;;;;;2.88;1.80;;;;;;;;;;5006788;28;20037;-69
2022/05/18 00:09:42;;;;;;;2.60;1.98;;;;;;;;;;5006276;28;20034;-69
2022/05/18 00:12:08;;;;;;;3.95;2.20;;;;;;;;;;5005743;28;20117;-69
2022/05/18 00:14:34;;;;;;;2.90;2.25;;;;;;;;;;5005767;28;20045;-69
2022/05/18 00:17:03;;;;;;;5.30;2.30;;;;;;;;;;5002329;28;20033;-70
2022/05/18 00:19:32;;;;;;;2.55;1.92;;;;;;;;;;5007740;28;20052;-70
2022/05/18 00:21:59;;;;;;;5.40;2.20;;;;;;;;;;5021600;28;20046;-69
2022/05/18 00:24:25;;;;;;;4.63;2.00;;;;;;;;;;5006743;28;20819;-69
2022/05/18 00:26:50;;;;;;;4.32;2.10;;;;;;;;;;5004496;28;20061;-70
2022/05/18 00:29:16;;;;;;;4.63;2.20;;;;;;;;;;5006212;28;20218;-69
2022/05/18 00:31:41;;;;;;;3.85;2.33;;;;;;;;;;5021237;28;20087;-69
2022/05/18 00:34:08;;;;;;;5.90;2.40;;;;;;;;;;5003235;28;20041;-69
2022/05/18 00:36:34;;;;;;;3.38;2.10;;;;;;;;;;5001197;28;20050;-69
2022/05/18 00:38:59;;;;;;;5.45;2.15;;;;;;;;;;5022324;28;20034;-70
2022/05/18 00:41:25;;;;;;;7.47;2.47;;;;;;;;;;5006548;28;20049;-69
2022/05/18 00:43:51;;;;;;;6.78;2.78;;;;;;;;;;5007931;28;20072;-69
2022/05/18 00:46:17;;;;;;;7.70;2.80;;;;;;;;;;4998721;28;20045;-69
2022/05/18 00:48:43;;;;;;;4.35;3.00;;;;;;;;;;5020858;28;20034;-69
2022/05/18 00:51:43;;;;;;;6.93;3.22;;;;;;;;;;5003998;28;20045;-69
2022/05/18 00:54:22;;;;;;;5.68;2.60;;;;;;;;;;5004657;28;20526;-69
2022/05/18 00:56:56;;;;;;;7.03;2.72;;;;;;;;;;5007475;28;20042;-69
2022/05/18 00:59:26;;;;;;;5.05;2.58;;;;;;;;;;5007470;28;20100;-70
2022/05/18 01:01:52;;;;;;;4.75;2.90;;;;;;;;;;5008126;28;20034;-70
2022/05/18 01:04:18;;;;;;;7.80;2.85;;;;;;;;;;5004469;28;20038;-69
2022/05/18 01:06:46;;;;;;;6.70;2.60;;;;;;;;;;5004428;28;20423;-70
2022/05/18 01:09:18;;;;;;;4.68;2.72;;;;;;;;;;5007701;28;20049;-69
2022/05/18 01:11:44;;;;;;;7.03;2.90;;;;;;;;;;5007079;28;20050;-69
2022/05/18 01:14:20;;;;;;;4.22;2.60;;;;;;;;;;5002347;28;20022;-69
2022/05/18 01:16:47;;;;;;;5.35;2.67;;;;;;;;;;5007437;28;20018;-69
2022/05/18 01:19:26;;;;;;;3.63;2.83;;;;;;;;;;5005371;28;20049;-70
2022/05/18 01:22:17;;;;;;;4.85;2.50;;;;;;;;;;5000167;28;20041;-69
2022/05/18 01:25:08;;;;;;;5.63;3.28;;;;;;;;;;5001383;28;20030;-69
2022/05/18 01:27:34;;;;;;;7.53;2.92;;;;;;;;;;5006859;28;20042;-68
2022/05/18 01:30:00;;;;;;;5.15;2.78;;;;;;;;;;5006234;28;20038;-69
2022/05/18 01:32:37;;;;;;;7.97;2.75;;;;;;;;;;5005158;28;20030;-69
2022/05/18 01:35:02;;;;;;;6.60;3.20;;;;;;;;;;5005724;28;20105;-70
2022/05/18 01:37:27;;;;;;;4.88;2.70;;;;;;;;;;5006316;28;20129;-70
2022/05/18 01:39:58;;;;;;;6.70;2.70;;;;;;;;;;4995496;28;20090;-69
2022/05/18 01:42:33;;;;;;;5.65;2.90;;;;;;;;;;5004116;28;20055;-70
2022/05/18 01:44:59;;;;;;;5.05;2.88;;;;;;;;;;5005501;28;20072;-69
2022/05/18 01:47:25;;;;;;;5.55;2.97;;;;;;;;;;5006133;28;20036;-69
2022/05/18 01:49:53;;;;;;;6.82;3.10;;;;;;;;;;5007340;28;20029;-69
2022/05/18 01:52:19;;;;;;;4.80;3.00;;;;;;;;;;5005878;28;20072;-69
2022/05/18 01:54:46;;;;;;;4.50;2.83;;;;;;;;;;5020183;28;20037;-70
2022/05/18 01:57:12;;;;;;;5.15;2.70;;;;;;;;;;5006136;28;20045;-69
2022/05/18 01:59:38;;;;;;;4.35;3.03;;;;;;;;;;5006831;28;20060;-69
2022/05/18 02:02:06;;;;;;;6.18;2.90;;;;;;;;;;5006448;28;20495;-70
2022/05/18 02:04:33;;;;;;;6.82;2.95;;;;;;;;;;4999631;28;20049;-69
2022/05/18 02:07:02;;;;;;;4.78;3.05;;;;;;;;;;5005271;28;20057;-69
2022/05/18 02:09:29;;;;;;;4.72;3.13;;;;;;;;;;5001514;28;20053;-70
2022/05/18 02:11:55;;;;;;;5.70;3.30;;;;;;;;;;5003252;28;20061;-69
2022/05/18 02:14:22;;;;;;;6.63;3.38;;;;;;;;;;5006568;28;20026;-70
2022/05/18 02:16:48;;;;;;;6.18;3.20;;;;;;;;;;5006384;28;20056;-69
2022/05/18 02:19:13;;;;;;;4.70;2.83;;;;;;;;;;5004021;28;20034;-69
2022/05/18 02:21:39;;;;;;;5.07;3.03;;;;;;;;;;5005222;28;20042;-69
2022/05/18 02:24:04;;;;;;;10.48;3.75;;;;;;;;;;5005374;28;20034;-69
2022/05/18 02:26:30;;;;;;;5.63;3.08;;;;;;;;;;5003579;28;20053;-69
2022/05/18 02:28:56;;;;;;;4.45;3.08;;;;;;;;;;5004102;28;20046;-69
2022/05/18 02:31:21;;;;;;;5.05;2.90;;;;;;;;;;5004719;28;20038;-70
2022/05/18 02:33:46;;;;;;;4.85;2.92;;;;;;;;;;5006746;28;20726;-69
2022/05/18 02:36:12;;;;;;;4.65;2.92;;;;;;;;;;5003079;28;20037;-70
2022/05/18 02:38:39;;;;;;;4.75;3.47;;;;;;;;;;4999410;28;20149;-69
2022/05/18 02:41:04;;;;;;;5.95;3.33;;;;;;;;;;5004974;28;20037;-69
2022/05/18 02:43:31;;;;;;;7.28;3.42;;;;;;;;;;5006149;28;20073;-70
2022/05/18 02:46:03;;;;;;;7.63;4.20;;;;;;;;;;5020526;28;20034;-70
2022/05/18 02:48:28;;;;;;;6.53;3.53;;;;;;;;;;5004113;28;20127;-69
2022/05/18 02:50:54;;;;;;;6.75;4.07;;;;;;;;;;5005623;28;20531;-70
2022/05/18 02:53:19;;;;;;;5.57;3.90;;;;;;;;;;5009525;28;20037;-69
2022/05/18 02:58:28;;;;;;;8.00;4.00;;;;;;;;;;5009222;28;20061;-69
2022/05/18 03:00:53;;;;;;;7.60;4.70;;;;;;;;;;5024386;28;20042;-69
2022/05/18 03:03:19;;;;;;;8.32;4.18;;;;;;;;;;5006191;28;20038;-69
2022/05/18 03:05:44;;;;;;;6.85;4.40;;;;;;;;;;5006611;28;20037;-70
2022/05/18 03:08:09;;;;;;;7.68;4.80;;;;;;;;;;5006104;28;20051;-70
2022/05/18 03:10:36;;;;;;;5.97;4.25;;;;;;;;;;5008174;28;20056;-70
2022/05/18 03:13:01;;;;;;;8.32;4.75;;;;;;;;;;5009198;28;20519;-70
2022/05/18 03:15:26;;;;;;;8.88;4.20;;;;;;;;;;5008899;28;20051;-70
2022/05/18 03:17:53;;;;;;;10.02;4.53;;;;;;;;;;5008928;28;20042;-69
2022/05/18 03:25:51;;;;;;;7.82;4.80;;;;;;;;;;5007506;28;20530;-69
2022/05/18 03:28:16;;;;;;;9.80;4.88;;;;;;;;;;5007883;28;20054;-69
2022/05/18 03:30:41;;;;;;;7.85;4.80;;;;;;;;;;5008294;28;20053;-69
2022/05/18 03:33:07;;;;;;;11.85;5.43;;;;;;;;;;5021205;28;20210;-69
2022/05/18 03:35:32;;;;;;;10.70;5.95;;;;;;;;;;5008446;28;20061;-69
2022/05/18 03:37:57;;;;;;;8.77;5.18;;;;;;;;;;5005302;28;20040;-70
2022/05/18 03:40:23;;;;;;;9.15;5.53;;;;;;;;;;5008516;28;20053;-69
2022/05/18 03:42:48;;;;;;;10.00;5.65;;;;;;;;;;5006941;28;20054;-69
2022/05/18 03:45:13;;;;;;;8.80;4.32;;;;;;;;;;5004285;28;20063;-70
2022/05/18 03:47:39;;;;;;;5.68;4.13;;;;;;;;;;5007213;28;20128;-70
2022/05/18 03:50:05;;;;;;;7.50;4.00;;;;;;;;;;5009260;28;20381;-70
2022/05/18 03:52:30;;;;;;;8.45;4.47;;;;;;;;;;5006003;28;20053;-69
2022/05/18 03:54:55;;;;;;;8.02;4.65;;;;;;;;;;5008195;28;20042;-70
2022/05/18 03:57:22;;;;;;;9.77;5.18;;;;;;;;;;5007821;28;20655;-69
2022/05/18 03:59:47;;;;;;;11.45;4.90;;;;;;;;;;5006376;28;20469;-69
2022/05/18 04:02:13;;;;;;;7.60;5.30;;;;;;;;;;5007121;28;20620;-69
2022/05/18 04:04:38;;;;;;;8.73;5.32;;;;;;;;;;5009412;28;20414;-70
2022/05/18 04:07:04;;;;;;;9.68;5.15;;;;;;;;;;5007198;28;20168;-70
2022/05/18 04:09:29;;;;;;;15.57;6.22;;;;;;;;;;5003966;28;20424;-70
2022/05/18 04:11:55;;;;;;;8.38;5.22;;;;;;;;;;5004693;28;20045;-70
2022/05/18 04:14:20;;;;;;;9.88;5.50;;;;;;;;;;5008993;28;20491;-70
2022/05/18 04:16:49;;;;;;;13.77;6.18;;;;;;;;;;5007566;28;20057;-69
2022/05/18 04:19:15;;;;;;;9.80;5.03;;;;;;;;;;4999716;28;20045;-70
2022/05/18 04:21:41;;;;;;;9.82;5.43;;;;;;;;;;5007838;28;20038;-69
2022/05/18 04:24:06;;;;;;;19.05;5.47;;;;;;;;;;5008480;28;20672;-70
2022/05/18 04:26:31;;;;;;;9.52;4.82;;;;;;;;;;5004736;28;20107;-70
2022/05/18 04:28:57;;;;;;;11.00;4.93;;;;;;;;;;5008707;28;20058;-69
2022/05/18 04:31:22;;;;;;;12.85;5.15;;;;;;;;;;5002163;28;20050;-69
2022/05/18 04:33:47;;;;;;;14.90;5.72;;;;;;;;;;5008576;28;20515;-70
2022/05/18 04:36:13;;;;;;;10.48;4.88;;;;;;;;;;5007242;28;20567;-69
2022/05/18 04:38:38;;;;;;;7.60;4.90;;;;;;;;;;5008550;28;20042;-69
2022/05/18 04:41:04;;;;;;;12.70;4.72;;;;;;;;;;5007478;28;20030;-70
2022/05/18 04:43:32;;;;;;;7.78;4.57;;;;;;;;;;4998981;28;20056;-69
2022/05/18 04:45:57;;;;;;;8.73;5.18;;;;;;;;;;5008164;28;20109;-69
2022/05/18 04:48:24;;;;;;;8.07;4.72;;;;;;;;;;5007400;28;20674;-70
2022/05/18 04:50:50;;;;;;;8.88;4.75;;;;;;;;;;5007308;28;20644;-69
2022/05/18 04:53:16;;;;;;;8.52;5.00;;;;;;;;;;5007396;28;20025;-70
2022/05/18 04:55:43;;;;;;;7.38;4.70;;;;;;;;;;5007786;28;20037;-69
2022/05/18 04:58:08;;;;;;;10.32;5.13;;;;;;;;;;5005764;28;20038;-69
2022/05/18 05:00:33;;;;;;;7.75;4.68;;;;;;;;;;5005335;28;20049;-69
2022/05/18 05:03:00;;;;;;;10.98;5.22;;;;;;;;;;5005862;28;20041;-70
2022/05/18 05:05:26;;;;;;;9.35;4.28;;;;;;;;;;5006791;28;20040;-70
2022/05/18 05:07:56;;;;;;;9.43;4.25;;;;;;;;;;5005663;28;20061;-70
2022/05/18 05:10:22;;;;;;;5.95;4.38;;;;;;;;;;5004933;28;20057;-69
2022/05/18 05:12:47;;;;;;;7.63;4.35;;;;;;;;;;5005776;28;20045;-69
2022/05/18 05:15:13;;;;;;;9.25;5.03;;;;;;;;;;5004939;28;20048;-70
2022/05/18 05:17:39;;;;;;;11.18;5.30;;;;;;;;;;5004949;28;20077;-70
2022/05/18 05:20:06;;;;;;;9.57;4.60;;;;;;;;;;5006863;28;20128;-69
2022/05/18 05:22:31;;;;;;;10.00;5.25;;;;;;;;;;5006219;28;20057;-70
2022/05/18 05:24:57;;;;;;;14.20;5.18;;;;;;;;;;5007270;28;20029;-69
2022/05/18 05:27:22;;;;;;;11.80;5.05;;;;;;;;;;5001365;28;20066;-70
2022/05/18 05:29:47;;;;;;;15.13;5.22;;;;;;;;;;5006403;28;20045;-69
2022/05/18 05:32:13;;;;;;;18.38;5.35;;;;;;;;;;5005059;28;20084;-69
2022/05/18 05:34:38;;;;;;;14.48;5.50;;;;;;;;;;5004132;28;20022;-70
2022/05/18 05:37:04;;;;;;;10.55;5.70;;;;;;;;;;5006478;28;20583;-69
2022/05/18 05:39:29;;;;;;;15.15;5.25;;;;;;;;;;5004025;28;20034;-70
2022/05/18 05:41:54;;;;;;;11.10;5.57;;;;;;;;;;5006375;28;20037;-69
2022/05/18 05:44:20;;;;;;;7.72;4.85;;;;;;;;;;5005875;28;20086;-69
2022/05/18 05:46:45;;;;;;;8.55;4.68;;;;;;;;;;5006842;28;20068;-69
2022/05/18 05:49:11;;;;;;;8.32;4.80;;;;;;;;;;5006222;28;20133;-69
2022/05/18 05:51:37;;;;;;;6.93;4.63;;;;;;;;;;4993756;28;20065;-69
2022/05/18 05:54:03;;;;;;;11.52;4.70;;;;;;;;;;4994192;28;20065;-70
2022/05/18 05:56:29;;;;;;;7.95;4.45;;;;;;;;;;4999038;28;23218;-69
2022/05/18 05:58:55;;;;;;;8.70;4.80;;;;;;;;;;4994580;28;20029;-69
2022/05/18 06:01:21;;;;;;;8.40;3.97;;;;;;;;;;4995732;28;20096;-70
2022/05/18 06:03:46;;;;;;;8.77;4.20;;;;;;;;;;5002006;28;20069;-70
2022/05/18 06:06:11;;;;;;;9.10;4.10;;;;;;;;;;4993921;28;20123;-69
2022/05/18 06:08:37;;;;;;;6.25;3.88;;;;;;;;;;4996180;28;20042;-69
2022/05/18 06:11:04;;;;;;;6.13;4.07;;;;;;;;;;4994142;28;20049;-69
2022/05/18 06:13:31;;;;;;;6.40;3.78;;;;;;;;;;4998655;28;20033;-69
2022/05/18 06:15:57;;;;;;;6.03;4.00;;;;;;;;;;5003376;28;20076;-70
2022/05/18 06:18:23;;;;;;;7.43;3.70;;;;;;;;;;5004999;28;20545;-70
2022/05/18 06:20:49;;;;;;;6.88;3.88;;;;;;;;;;5003943;28;20046;-70
2022/05/18 06:23:16;;;;;;;8.48;3.53;;;;;;;;;;5002372;28;20088;-69
2022/05/18 06:25:41;;;;;;;5.55;3.65;;;;;;;;;;4994949;28;20063;-70
2022/05/18 06:28:08;;;;;;;7.93;4.05;;;;;;;;;;5005180;28;20054;-70
2022/05/18 06:30:34;;;;;;;7.10;3.30;;;;;;;;;;5006916;28;20128;-70
2022/05/18 06:32:59;;;;;;;5.68;2.72;;;;;;;;;;5021131;28;20144;-70
2022/05/18 06:35:25;;;;;;;5.30;2.95;;;;;;;;;;5004732;28;20038;-69
2022/05/18 06:37:50;;;;;;;7.22;3.10;;;;;;;;;;5006753;28;20467;-70
2022/05/18 06:40:17;;;;;;;7.22;2.80;;;;;;;;;;5000941;28;20042;-69
2022/05/18 06:42:44;;;;;;;6.53;3.17;;;;;;;;;;4999004;28;20034;-70
2022/05/18 06:45:10;;;;;;;6.22;2.90;;;;;;;;;;4998339;28;20034;-70
2022/05/18 06:47:35;;;;;;;5.10;2.83;;;;;;;;;;5005685;28;20116;-70
2022/05/18 06:50:02;;;;;;;6.07;2.83;;;;;;;;;;5005009;28;20580;-70
2022/05/18 06:52:27;;;;;;;5.78;2.72;;;;;;;;;;5005255;28;20555;-70
2022/05/18 06:54:53;;;;;;;5.22;3.13;;;;;;;;;;5021865;28;20183;-70
2022/05/18 06:57:18;;;;;;;4.50;2.58;;;;;;;;;;5006775;28;20430;-69
2022/05/18 06:59:43;;;;;;;9.32;3.13;;;;;;;;;;5006538;28;20769;-70
2022/05/18 07:02:09;;;;;;;7.10;3.10;;;;;;;;;;5003412;28;20022;-70
2022/05/18 07:04:34;;;;;;;5.20;2.90;;;;;;;;;;5003456;28;20074;-70
2022/05/18 07:07:00;;;;;;;5.10;2.78;;;;;;;;;;5004640;28;20038;-70
2022/05/18 07:09:26;;;;;;;4.85;2.53;;;;;;;;;;5003851;28;20089;-70
2022/05/18 07:11:52;;;;;;;5.95;2.70;;;;;;;;;;5020626;28;20121;-70
2022/05/18 07:14:19;;;;;;;4.25;2.20;;;;;;;;;;5005592;28;20184;-69
2022/05/18 07:16:46;;;;;;;6.22;2.70;;;;;;;;;;4998969;28;20541;-70
2022/05/18 07:19:12;;;;;;;3.03;2.40;;;;;;;;;;4995183;28;20817;-70
2022/05/18 07:21:38;;;;;;;5.13;2.15;;;;;;;;;;5006087;28;20129;-70
2022/05/18 07:24:04;;;;;;;2.40;1.90;;;;;;;;;;5003724;28;20213;-70
2022/05/18 07:26:30;;;;;;;3.40;2.70;;;;;;;;;;5002592;28;20114;-70
2022/05/18 07:28:56;;;;;;;2.88;1.73;;;;;;;;;;5003670;28;20790;-70
2022/05/18 07:31:22;;;;;;;5.18;2.40;;;;;;;;;;4986621;28;20054;-70
2022/05/18 07:33:48;;;;;;;3.10;2.15;;;;;;;;;;4991643;28;20049;-70
2022/05/18 07:36:15;;;;;;;2.90;1.83;;;;;;;;;;5001489;28;20042;-70
2022/05/18 07:38:41;;;;;;;4.25;2.10;;;;;;;;;;5008037;28;20045;-70
2022/05/18 07:41:09;;;;;;;5.03;1.95;;;;;;;;;;5008110;28;20038;-70
2022/05/18 07:43:34;;;;;;;3.92;1.95;;;;;;;;;;5004032;28;20524;-70
2022/05/18 07:45:59;;;;;;;2.17;1.40;;;;;;;;;;5003482;28;20506;-70
2022/05/18 07:48:26;;;;;;;2.45;1.40;;;;;;;;;;5007393;28;20538;-70
2022/05/18 07:50:51;;;;;;;1.92;1.42;;;;;;;;;;5007839;28;20037;-70
2022/05/18 07:53:17;;;;;;;2.00;1.73;;;;;;;;;;5007159;28;20025;-70
2022/05/18 07:55:42;;;;;;;2.15;1.60;;;;;;;;;;5006582;28;20026;-70
2022/05/18 07:58:11;;;;;;;3.25;1.80;;;;;;;;;;5002481;28;20038;-70
2022/05/18 08:00:36;;;;;;;2.65;1.27;;;;;;;;;;5000929;28;20077;-70
2022/05/18 08:03:02;;;;;;;2.30;1.27;;;;;;;;;;4998586;28;20136;-69
2022/05/18 08:05:30;;;;;;;3.30;1.30;;;;;;;;;;5004305;28;20113;-70
2022/05/18 08:07:56;;;;;;;4.28;1.55;;;;;;;;;;5024300;28;20014;-70
2022/05/18 08:15:53;;;;;;;2.30;1.48;;;;;;;;;;5007458;28;20045;-70
2022/05/18 08:18:20;;;;;;;2.92;1.58;;;;;;;;;;4994149;28;20057;-70
2022/05/18 08:20:46;;;;;;;4.15;1.70;;;;;;;;;;5006559;28;20041;-68
2022/05/18 08:23:12;;;;;;;3.97;1.52;;;;;;;;;;5006329;28;20040;-68
2022/05/18 08:25:38;;;;;;;2.08;1.40;;;;;;;;;;5024045;28;20109;-68
2022/05/18 08:28:05;;;;;;;2.88;1.38;;;;;;;;;;5008884;28;20046;-68
2022/05/18 08:30:32;;;;;;;3.70;1.27;;;;;;;;;;5008596;28;20468;-68
2022/05/18 08:32:58;;;;;;;3.97;1.48;;;;;;;;;;5001131;28;20042;-68
2022/05/18 08:35:24;;;;;;;2.67;1.45;;;;;;;;;;5007876;28;20100;-69
2022/05/18 08:37:49;;;;;;;2.10;1.33;;;;;;;;;;5006215;28;20026;-69
2022/05/18 08:40:28;;;;;;;2.92;1.23;;;;;;;;;;5008262;28;20045;-69
2022/05/18 08:43:04;;;;;;;3.70;2.35;;;;;;;;;;5007728;28;20053;-69
2022/05/18 08:45:33;;;;;;;4.55;1.52;;;;;;;;;;5006028;28;20042;-68
2022/05/18 08:48:37;;;;;;;4.40;1.80;;;;;;;;;;5000921;28;20053;-69
2022/05/18 08:51:06;;;;;;;;;;;;;;;;;;5000604;28;20450;-68
2022/05/18 08:53:38;;;;;;;4.72;1.70;;;;;;;;;;4998875;28;19948;-68
2022/05/18 08:56:24;;;;;;;5.28;1.95;;;;;;;;;;5008897;28;20447;-69
2022/05/18 08:58:53;;;;;;;4.32;1.50;;;;;;;;;;5008575;28;20042;-69
2022/05/18 09:01:23;;;;;;;7.55;2.40;;;;;;;;;;5006365;28;20045;-69
2022/05/18 09:03:54;;;;;;;4.38;1.67;;;;;;;;;;5004462;28;20076;-69
2022/05/18 09:06:34;;;;;;;3.25;1.90;;;;;;;;;;5007546;28;20042;-69
2022/05/18 09:11:51;;;;;;;4.28;1.92;;;;;;;;;;5003998;28;20048;-69
2022/05/18 09:14:20;;;;;;;2.92;1.73;;;;;;;;;;5007912;28;20630;-69
2022/05/18 09:17:03;;;;;;;3.20;1.73;;;;;;;;;;5007893;28;20028;-69
2022/05/18 09:19:54;;;;;;;3.00;1.90;;;;;;;;;;4999873;28;20045;-69
2022/05/18 09:22:32;;;;;;;3.05;2.00;;;;;;;;;;5006023;28;20037;-69
2022/05/18 09:24:59;;;;;;;3.03;1.85;;;;;;;;;;5004334;28;20573;-69
2022/05/18 09:27:33;;;;;;;4.45;1.80;;;;;;;;;;5006129;28;20068;-68
2022/05/18 09:30:09;;;;;;;3.58;1.77;;;;;;;;;;5002608;28;20076;-69
2022/05/18 09:33:08;;;;;;;3.53;1.63;;;;;;;;;;4998087;28;20048;-69
2022/05/18 09:35:59;;;;;;;3.35;1.80;;;;;;;;;;4989292;28;20050;-69
2022/05/18 09:39:01;;;;;;;3.75;1.85;;;;;;;;;;5007466;28;20041;-69
2022/05/18 09:41:52;;;;;;;5.22;1.75;;;;;;;;;;5006537;28;20081;-69
2022/05/18 09:44:41;;;;;;;2.72;1.70;;;;;;;;;;5001093;28;20041;-69
2022/05/18 09:47:09;;;;;;;2.00;1.70;;;;;;;;;;5007696;28;20026;-69
2022/05/18 09:49:40;;;;;;;2.63;1.70;;;;;;;;;;5000584;28;20042;-68
2022/05/18 09:52:06;;;;;;;4.65;2.00;;;;;;;;;;5006969;28;20093;-69
2022/05/18 09:54:33;;;;;;;4.35;2.40;;;;;;;;;;5001714;28;20156;-68
2022/05/18 09:57:38;;;;;;;2.55;1.80;;;;;;;;;;4997384;28;20724;-69
2022/05/18 10:00:13;;;;;;;;;;;;;;;;;;5015486;28;20092;-69
2022/05/18 10:08:26;;;;;;;5.20;2.15;;;;;;;;;;5001812;28;20068;-69
2022/05/18 10:11:02;;;;;;;3.83;2.03;;;;;;;;;;5007108;28;20040;-69
2022/05/18 10:13:33;;;;;;;2.22;1.67;;;;;;;;;;4989838;28;20061;-69
2022/05/18 10:16:02;;;;;;;4.40;1.85;;;;;;;;;;5006906;28;20396;-69
2022/05/18 10:18:54;;;;;;;3.63;2.05;;;;;;;;;;5006942;28;20041;-69
2022/05/18 10:21:26;;;;;;;2.60;1.98;;;;;;;;;;4987008;28;20153;-69
2022/05/18 10:23:55;;;;;;;10.18;2.30;;;;;;;;;;4986096;28;20582;-69
2022/05/18 10:26:23;;;;;;;3.15;1.90;;;;;;;;;;4999901;28;20087;-69
2022/05/18 10:28:56;;;;;;;4.20;2.05;;;;;;;;;;5006707;28;20061;-69
2022/05/18 10:31:31;;;;;;;3.67;2.00;;;;;;;;;;5006105;28;20073;-69
2022/05/18 10:34:29;;;;;;;6.47;1.90;;;;;;;;;;5006770;28;20064;-69
2022/05/18 10:37:00;;;;;;;5.70;2.20;;;;;;;;;;5007041;28;20511;-69
2022/05/18 10:39:40;;;;;;;4.60;2.10;;;;;;;;;;5006835;28;20057;-69
2022/05/18 10:42:23;;;;;;;2.85;2.10;;;;;;;;;;5006205;28;20036;-69
2022/05/18 10:44:50;;;;;;;8.30;2.42;;;;;;;;;;5002793;28;20312;-69
2022/05/18 10:47:26;;;;;;;3.35;1.83;;;;;;;;;;4990707;28;20030;-69
2022/05/18 10:49:53;;;;;;;3.38;2.13;;;;;;;;;;4987502;28;20110;-69
2022/05/18 10:52:28;;;;;;;1.92;1.60;;;;;;;;;;4987095;28;20764;-69
2022/05/18 10:55:15;;;;;;;3.28;1.92;;;;;;;;;;4986763;28;20587;-69
2022/05/18 10:57:52;;;;;;;3.08;1.70;;;;;;;;;;4986936;28;20054;-69
2022/05/18 11:00:20;;;;;;;3.33;1.90;;;;;;;;;;4993689;28;20092;-69
2022/05/18 11:03:08;;;;;;;3.55;2.17;;;;;;;;;;4998977;28;20041;-69
2022/05/18 11:05:46;;;;;;;4.65;2.40;;;;;;;;;;4986827;28;20519;-69
2022/05/18 11:08:17;;;;;;;4.30;1.88;;;;;;;;;;5003447;28;20518;-69
2022/05/18 11:11:04;;;;;;;3.17;2.22;;;;;;;;;;5006588;28;20030;-69
2022/05/18 11:13:35;;;;;;;2.97;2.15;;;;;;;;;;4991987;28;20046;-69
2022/05/18 11:16:20;;;;;;;3.50;2.30;;;;;;;;;;4990761;28;20046;-69
2022/05/18 11:18:57;;;;;;;3.85;2.15;;;;;;;;;;4990937;28;20096;-69
2022/05/18 11:21:28;;;;;;;3.25;2.20;;;;;;;;;;4990300;28;20104;-69
2022/05/18 11:24:03;;;;;;;4.85;2.67;;;;;;;;;;5009333;28;20129;-69
2022/05/18 11:26:35;;;;;;;3.75;2.10;;;;;;;;;;5003179;28;20079;-69
2022/05/18 11:29:34;;;;;;;5.63;2.50;;;;;;;;;;5001833;28;20112;-69
2022/05/18 11:32:18;;;;;;;4.30;2.30;;;;;;;;;;5004097;28;20046;-69
2022/05/18 11:35:28;;;;;;;4.70;2.30;;;;;;;;;;5023254;28;20049;-69
2022/05/18 11:38:17;;;;;;;4.60;2.78;;;;;;;;;;5009374;28;20140;-69
2022/05/18 11:41:17;;;;;;;5.25;2.08;;;;;;;;;;5014582;28;20566;-69
2022/05/18 11:44:04;;;;;;;8.48;3.45;;;;;;;;;;5006393;28;20046;-67
2022/05/18 11:46:33;;;;;;;3.78;1.70;;;;;;;;;;5022893;28;20515;-68
2022/05/18 11:49:04;;;;;;;3.17;2.13;;;;;;;;;;5004877;28;20048;-68
2022/05/18 11:51:32;;;;;;;4.47;2.50;;;;;;;;;;5007677;28;20631;-68
2022/05/18 11:54:26;;;;;;;4.28;2.28;;;;;;;;;;5007152;28;20042;-68
2022/05/18 11:57:04;;;;;;;6.32;2.20;;;;;;;;;;5006107;28;20067;-68
2022/05/18 11:59:54;;;;;;;4.13;2.13;;;;;;;;;;5002711;28;20054;-68
2022/05/18 12:02:55;;;;;;;3.10;1.98;;;;;;;;;;5007546;28;20076;-68
2022/05/18 12:05:50;;;;;;;4.18;1.90;;;;;;;;;;5010390;28;20116;-68
2022/05/18 12:08:31;;;;;;;5.20;2.22;;;;;;;;;;5008966;28;20073;-68
2022/05/18 12:11:07;;;;;;;4.25;2.00;;;;;;;;;;5016800;28;20060;-68
2022/05/18 12:14:04;;;;;;;4.13;2.08;;;;;;;;;;5007381;28;20037;-68
2022/05/18 12:16:33;;;;;;;3.38;1.90;;;;;;;;;;4999768;28;20136;-68
2022/05/18 12:19:07;;;;;;;5.13;1.80;;;;;;;;;;4993489;28;20073;-68
2022/05/18 12:21:36;;;;;;;6.20;1.90;;;;;;;;;;5008240;28;20595;-68
2022/05/18 12:24:05;;;;;;;4.28;1.92;;;;;;;;;;5008314;28;20049;-68
2022/05/18 12:26:32;;;;;;;3.58;2.00;;;;;;;;;;5004875;28;20050;-68
2022/05/18 12:28:58;;;;;;;3.53;2.08;;;;;;;;;;5009265;28;20760;-68
2022/05/18 12:31:26;;;;;;;4.75;1.92;;;;;;;;;;5009067;28;20073;-68
2022/05/18 12:34:12;;;;;;;3.45;1.77;;;;;;;;;;5004833;28;20045;-67
2022/05/18 12:36:55;;;;;;;3.67;1.92;;;;;;;;;;5007247;28;20137;-68
2022/05/18 12:39:38;;;;;;;5.05;2.10;;;;;;;;;;5002672;28;20045;-68
2022/05/18 12:42:08;;;;;;;4.65;2.20;;;;;;;;;;5008664;28;20044;-68
2022/05/18 12:44:50;;;;;;;4.15;2.00;;;;;;;;;;5007880;28;20064;-68
2022/05/18 12:47:26;;;;;;;2.20;1.83;;;;;;;;;;5007226;28;20117;-68
2022/05/18 12:50:22;;;;;;;2.90;2.00;;;;;;;;;;4989468;28;20622;-68
2022/05/18 12:52:53;;;;;;;3.60;1.85;;;;;;;;;;4996913;28;20561;-68
2022/05/18 12:55:39;;;;;;;5.28;1.88;;;;;;;;;;5003091;28;20048;-68
2022/05/18 12:58:10;;;;;;;2.67;1.65;;;;;;;;;;5003682;28;20574;-68
2022/05/18 13:00:52;;;;;;;4.07;1.77;;;;;;;;;;5004395;28;20173;-68
2022/05/18 13:03:17;;;;;;;4.80;1.80;;;;;;;;;;5005500;28;20512;-68
2022/05/18 13:05:45;;;;;;;3.65;2.00;;;;;;;;;;5004917;28;20065;-68
2022/05/18 13:08:32;;;;;;;3.17;1.83;;;;;;;;;;5007230;28;20037;-68
2022/05/18 13:11:13;;;;;;;5.38;1.90;;;;;;;;;;5005631;28;20403;-68
2022/05/18 13:14:00;;;;;;;4.28;2.20;;;;;;;;;;4992868;28;20775;-68
2022/05/18 13:16:54;;;;;;;4.57;2.00;;;;;;;;;;5007267;28;20558;-68
2022/05/18 13:19:24;;;;;;;4.47;1.98;;;;;;;;;;5022166;28;20045;-68
2022/05/18 13:21:59;;;;;;;4.43;1.88;;;;;;;;;;5006120;28;20125;-68
2022/05/18 13:24:31;;;;;;;3.30;2.10;;;;;;;;;;5002743;28;20419;-68
2022/05/18 13:27:02;;;;;;;5.60;2.03;;;;;;;;;;5003713;28;20044;-68
2022/05/18 13:29:31;;;;;;;2.95;1.77;;;;;;;;;;5007520;28;20056;-68
2022/05/18 13:32:01;;;;;;;5.03;1.90;;;;;;;;;;5004544;28;20033;-69
2022/05/18 13:34:36;;;;;;;5.18;1.80;;;;;;;;;;5007807;28;20041;-68
2022/05/18 13:37:04;;;;;;;2.58;1.90;;;;;;;;;;5002763;28;20418;-68
2022/05/18 13:39:35;;;;;;;3.58;1.70;;;;;;;;;;5007357;28;20515;-68
2022/05/18 13:42:08;;;;;;;3.65;1.90;;;;;;;;;;5003849;28;20056;-68
2022/05/18 13:44:34;;;;;;;1.90;1.60;;;;;;;;;;5005335;28;20072;-68
2022/05/18 13:47:01;;;;;;;2.30;1.65;;;;;;;;;;5007910;28;20041;-68
2022/05/18 13:49:31;;;;;;;2.38;1.80;;;;;;;;;;5006727;28;20042;-68
2022/05/18 13:52:04;;;;;;;4.07;1.73;;;;;;;;;;5005736;28;20041;-68
2022/05/18 13:54:36;;;;;;;3.70;1.58;;;;;;;;;;5007487;28;20049;-68
2022/05/18 13:57:05;;;;;;;2.92;1.90;;;;;;;;;;5007334;28;20042;-68
2022/05/18 13:59:33;;;;;;;2.70;1.80;;;;;;;;;;5005036;28;20447;-68
2022/05/18 14:02:02;;;;;;;2.35;1.58;;;;;;;;;;5006004;28;20030;-69
2022/05/18 14:04:40;;;;;;;1.73;1.40;;;;;;;;;;5004501;28;20045;-68
2022/05/18 14:07:06;;;;;;;4.45;1.65;;;;;;;;;;5007102;28;20038;-68
2022/05/18 14:09:38;;;;;;;2.58;1.88;;;;;;;;;;4996981;28;20172;-69
2022/05/18 14:12:04;;;;;;;2.72;1.65;;;;;;;;;;4997506;28;20169;-68
2022/05/18 14:14:34;;;;;;;9.18;2.17;;;;;;;;;;5002151;28;20132;-68
2022/05/18 14:17:10;;;;;;;4.15;1.83;;;;;;;;;;5002606;28;20026;-68
2022/05/18 14:19:42;;;;;;;2.33;1.63;;;;;;;;;;5003975;28;20095;-68
2022/05/18 14:22:12;;;;;;;2.58;1.60;;;;;;;;;;5005033;28;20046;-68
2022/05/18 14:25:01;;;;;;;1.77;1.55;;;;;;;;;;5002902;28;20411;-68
2022/05/18 14:27:29;;;;;;;5.43;1.52;;;;;;;;;;5003814;28;20042;-68
2022/05/18 14:30:00;;;;;;;2.38;1.60;;;;;;;;;;5004266;28;20519;-68
2022/05/18 14:32:32;;;;;;;3.67;1.55;;;;;;;;;;5000489;28;20026;-68
2022/05/18 14:35:03;;;;;;;3.20;1.42;;;;;;;;;;5003344;28;20439;-69
2022/05/18 14:37:34;;;;;;;2.60;1.50;;;;;;;;;;5004480;28;20522;-68
2022/05/18 14:40:03;;;;;;;2.33;1.70;;;;;;;;;;5004467;28;20125;-68
2022/05/18 14:42:30;;;;;;;8.77;2.00;;;;;;;;;;5004111;28;20038;-68
2022/05/18 14:45:22;;;;;;;2.88;1.40;;;;;;;;;;5002515;28;20130;-68
2022/05/18 14:47:51;;;;;;;2.72;1.50;;;;;;;;;;5010907;28;20057;-68
2022/05/18 14:50:36;;;;;;;2.20;1.60;;;;;;;;;;5003682;28;20018;-68
2022/05/18 14:53:03;;;;;;;2.60;1.40;;;;;;;;;;5009301;28;20029;-68
2022/05/18 14:55:40;;;;;;;2.05;1.38;;;;;;;;;;5004610;28;20045;-68
2022/05/18 14:58:09;;;;;;;3.28;1.50;;;;;;;;;;4991323;28;20419;-68
2022/05/18 15:00:40;;;;;;;2.15;1.50;;;;;;;;;;4999736;28;20515;-68
2022/05/18 15:03:09;;;;;;;2.70;1.60;;;;;;;;;;4998973;28;20160;-68
2022/05/18 15:05:41;;;;;;;4.45;1.75;;;;;;;;;;5006178;28;20530;-68
2022/05/18 15:08:12;;;;;;;4.13;1.90;;;;;;;;;;4999439;28;20029;-68
2022/05/18 15:10:51;;;;;;;2.38;1.67;;;;;;;;;;4995037;28;20090;-68
2022/05/18 15:13:26;;;;;;;5.28;1.92;;;;;;;;;;5009566;28;20041;-68
2022/05/18 15:15:58;;;;;;;3.28;1.63;;;;;;;;;;5025488;28;20048;-68
2022/05/18 15:18:39;;;;;;;2.63;1.70;;;;;;;;;;5010375;28;20053;-68
2022/05/18 15:21:20;;;;;;;2.92;1.60;;;;;;;;;;5006926;28;20124;-68
2022/05/18 15:24:03;;;;;;;4.35;1.60;;;;;;;;;;5008554;28;20038;-68
2022/05/18 15:26:43;;;;;;;2.40;1.70;;;;;;;;;;5006575;28;20148;-68
2022/05/18 15:29:31;;;;;;;6.07;1.70;;;;;;;;;;5010388;28;20104;-68